Time;durP1;ratioP1;P1;durP2;ratioP2;P2;SDS_P1;SDS_P2;PMS_P1;PMS_P2;Temp;Humidity;BMP_temperature;BMP_pressure;BME280_temperature;BME280_humidity;BME280_pressure;Samples;Min_cycle;Max_cycle;Signal;HPM_P1;HPM_P2
2022/09/11 00:01:00;;;;;;;17.65;12.80;;;;;;;14.58;83.43;101647.47;6179469;23;20009;-88
2022/09/11 00:03:27;;;;;;;19.02;13.15;;;;;;;14.59;83.25;101659.84;6180168;23;20001;-87
2022/09/11 00:05:52;;;;;;;19.27;11.68;;;;;;;14.56;82.82;101646.69;6152065;23;20327;-87
2022/09/11 00:08:20;;;;;;;16.63;11.00;;;;;;;14.51;82.83;101657.53;6180335;23;20009;-87
2022/09/11 00:10:47;;;;;;;17.98;11.63;;;;;;;14.55;83.33;101663.59;6180118;23;20013;-87
2022/09/11 00:13:21;;;;;;;14.45;11.60;;;;;;;14.56;82.73;101665.31;6153143;23;20448;-87
2022/09/11 00:15:49;;;;;;;16.40;12.57;;;;;;;14.53;82.17;101660.13;6178795;23;20005;-87
2022/09/11 00:18:20;;;;;;;19.02;12.82;;;;;;;14.48;83.03;101654.13;6153793;23;20067;-87
2022/09/11 00:20:50;;;;;;;19.48;14.13;;;;;;;14.38;83.08;101648.31;6179837;23;20567;-87
2022/09/11 00:23:17;;;;;;;18.10;12.90;;;;;;;14.44;82.82;101660.50;6179627;23;20009;-87
2022/09/11 00:25:45;;;;;;;18.90;13.77;;;;;;;14.43;83.00;101656.97;6153235;23;20386;-87
2022/09/11 00:28:21;;;;;;;18.52;11.40;;;;;;;14.44;82.75;101657.81;6154206;23;20044;-87
2022/09/11 00:31:11;;;;;;;21.77;13.15;;;;;;;14.37;82.51;101659.03;6151440;23;20059;-87
2022/09/11 00:33:36;;;;;;;20.23;12.32;;;;;;;14.34;82.64;101664.47;6153165;23;20417;-87
2022/09/11 00:36:06;;;;;;;20.52;13.13;;;;;;;14.29;83.32;101662.88;6177535;23;20029;-87
2022/09/11 00:38:34;;;;;;;24.63;12.40;;;;;;;14.27;83.37;101653.25;6152922;23;20001;-87
2022/09/11 00:41:01;;;;;;;21.48;13.25;;;;;;;14.28;83.75;101661.16;6180866;23;20005;-87
2022/09/11 00:43:28;;;;;;;16.20;13.32;;;;;;;14.26;83.99;101665.66;6153342;23;20337;-87
2022/09/11 00:45:58;;;;;;;17.90;11.02;;;;;;;14.23;83.01;101668.47;6152498;23;20001;-87
2022/09/11 00:48:26;;;;;;;13.65;10.80;;;;;;;14.17;83.47;101660.72;6179546;23;20043;-87
2022/09/11 00:50:53;;;;;;;11.90;9.95;;;;;;;14.15;83.01;101659.94;6178668;23;20017;-87
2022/09/11 00:53:22;;;;;;;15.23;10.70;;;;;;;14.24;83.11;101669.31;6153215;23;20001;-88
2022/09/11 00:55:52;;;;;;;15.23;10.07;;;;;;;14.11;83.10;101653.00;6178006;23;20032;-87
2022/09/11 00:58:22;;;;;;;10.73;9.50;;;;;;;14.14;82.38;101665.34;6153343;23;20375;-87
2022/09/11 01:00:48;;;;;;;11.75;9.00;;;;;;;14.12;82.43;101668.03;6179761;23;20033;-86
2022/09/11 01:03:13;;;;;;;15.05;10.80;;;;;;;14.09;82.50;101659.34;6153966;23;20430;-87
2022/09/11 01:05:42;;;;;;;15.10;10.45;;;;;;;14.05;82.85;101663.91;6151229;23;19993;-88
2022/09/11 01:08:07;;;;;;;18.60;11.65;;;;;;;14.03;83.10;101676.38;6179209;23;20013;-87
2022/09/11 01:10:49;;;;;;;20.10;13.70;;;;;;;14.03;83.45;101668.41;6152206;23;20233;-88
2022/09/11 01:13:20;;;;;;;17.95;12.55;;;;;;;14.05;83.57;101682.53;6180666;23;20009;-87
2022/09/11 01:16:11;;;;;;;17.90;11.80;;;;;;;14.02;83.27;101679.97;6176981;23;20031;-87
2022/09/11 01:18:52;;;;;;;50.85;15.82;;;;;;;13.96;84.01;101691.75;6153516;23;20012;-87
2022/09/11 01:21:38;;;;;;;89.30;14.80;;;;;;;13.86;84.05;101700.16;6151400;23;20013;-86
2022/09/11 01:24:36;;;;;;;32.60;14.20;;;;;;;13.78;84.57;101692.47;6152163;23;20130;-88
2022/09/11 01:27:23;;;;;;;21.63;13.80;;;;;;;13.84;83.80;101692.22;6152050;23;20092;-87
2022/09/11 01:29:58;;;;;;;16.52;11.95;;;;;;;13.88;83.90;101680.53;6176787;23;20016;-87
2022/09/11 01:32:32;;;;;;;22.10;13.75;;;;;;;13.87;83.74;101685.94;6179571;23;20445;-88
2022/09/11 01:35:19;;;;;;;24.48;13.80;;;;;;;13.89;83.46;101692.91;6178123;23;20064;-88
2022/09/11 01:38:02;;;;;;;24.70;14.98;;;;;;;13.93;84.31;101694.50;6151532;23;20321;-88
2022/09/11 01:40:39;;;;;;;25.17;14.40;;;;;;;13.88;83.36;101700.94;6179374;23;20001;-87
2022/09/11 01:43:12;;;;;;;21.70;13.68;;;;;;;13.88;83.51;101704.47;6152545;23;20031;-87
2022/09/11 01:45:44;;;;;;;23.23;13.13;;;;;;;13.73;82.68;101681.16;6151017;23;20008;-87
2022/09/11 01:48:13;;;;;;;;;;;;;;;14.01;82.39;101696.88;6153091;23;20380;-87
2022/09/11 01:50:42;;;;;;;20.30;12.77;;;;;;;13.72;83.32;101684.75;6176862;23;19904;-87
2022/09/11 01:53:12;;;;;;;17.95;12.88;;;;;;;13.75;83.62;101700.56;6179754;23;20008;-88
2022/09/11 01:55:41;;;;;;;20.98;12.80;;;;;;;13.69;83.69;101690.19;6178508;23;20001;-87
2022/09/11 01:58:11;;;;;;;21.25;12.45;;;;;;;13.68;84.10;101688.47;6180043;23;20008;-87
2022/09/11 02:00:38;;;;;;;18.20;12.82;;;;;;;13.66;82.50;101701.81;6178916;23;20009;-87
2022/09/11 02:03:23;;;;;;;20.90;14.35;;;;;;;13.65;83.46;101691.22;6152828;23;20007;-87
2022/09/11 02:05:55;;;;;;;22.98;15.90;;;;;;;13.60;83.54;101693.19;6176517;23;20005;-87
2022/09/11 02:08:36;;;;;;;27.55;17.15;;;;;;;13.58;83.53;101687.97;6152556;23;20053;-88
2022/09/11 02:11:08;;;;;;;27.88;17.08;;;;;;;13.65;84.08;101702.72;6179839;23;20590;-87
2022/09/11 02:14:00;;;;;;;30.27;18.30;;;;;;;13.60;84.58;101687.88;6179030;23;20076;-87
2022/09/11 02:16:28;;;;;;;23.92;15.10;;;;;;;13.63;83.64;101701.94;6177290;23;20055;-87
2022/09/11 02:19:03;;;;;;;25.27;13.75;;;;;;;13.56;83.86;101696.91;6180218;23;20001;-87
2022/09/11 02:21:29;;;;;;;137.27;15.70;;;;;;;13.44;84.69;101703.56;6178621;23;20008;-86
2022/09/11 02:23:56;;;;;;;61.17;14.27;;;;;;;13.28;84.67;101712.09;6179432;23;20040;-86
2022/09/11 02:26:26;;;;;;;84.30;14.00;;;;;;;13.26;85.09;101715.75;6176849;23;20001;-86
2022/09/11 02:28:52;;;;;;;45.80;13.90;;;;;;;13.23;84.80;101721.16;6152888;23;20183;-87
2022/09/11 02:31:18;;;;;;;41.55;13.80;;;;;;;13.18;85.06;101723.94;6151602;23;20452;-87
2022/09/11 02:33:44;;;;;;;20.95;14.32;;;;;;;13.16;85.28;101725.81;6180540;23;20085;-87
2022/09/11 02:36:22;;;;;;;21.98;15.10;;;;;;;13.13;85.59;101709.97;6178402;23;20016;-87
2022/09/11 02:38:56;;;;;;;19.35;13.88;;;;;;;13.23;83.41;101716.72;6178012;23;19994;-87
2022/09/11 02:41:37;;;;;;;22.45;14.65;;;;;;;13.21;84.32;101707.91;6152560;23;20389;-87
2022/09/11 02:44:22;;;;;;;23.38;16.13;;;;;;;13.30;83.20;101720.03;6154103;23;20341;-86
2022/09/11 02:46:57;;;;;;;25.80;17.73;;;;;;;13.35;84.19;101715.41;6136627;23;20088;-87
2022/09/11 02:49:37;;;;;;;20.80;13.32;;;;;;;13.34;83.08;101724.31;6151436;23;20015;-87
2022/09/11 02:52:31;;;;;;;19.63;12.77;;;;;;;13.25;83.93;101708.72;6178845;23;20453;-86
2022/09/11 02:55:09;;;;;;;20.52;13.65;;;;;;;13.25;83.42;101736.13;6109830;23;20143;-87
2022/09/11 02:57:49;;;;;;;361.60;21.83;;;;;;;13.07;84.92;101728.81;6151663;23;20012;-86
2022/09/11 03:00:15;;;;;;;120.00;17.45;;;;;;;12.93;85.18;101717.81;6152174;23;20080;-87
2022/09/11 03:02:42;;;;;;;77.80;16.52;;;;;;;12.91;85.38;101730.25;6152381;23;20031;-87
2022/09/11 03:05:09;;;;;;;24.45;14.73;;;;;;;12.94;85.39;101732.81;6175549;23;20008;-86
2022/09/11 03:07:34;;;;;;;52.28;14.15;;;;;;;12.96;85.52;101729.19;6179169;23;20086;-86
2022/09/11 03:09:59;;;;;;;19.10;12.20;;;;;;;12.97;84.93;101730.91;6151707;23;20546;-87
2022/09/11 03:12:26;;;;;;;112.78;13.60;;;;;;;12.92;84.49;101726.72;6177933;23;20095;-86
2022/09/11 03:14:51;;;;;;;44.22;12.20;;;;;;;12.90;84.86;101742.66;6151131;23;20004;-86
2022/09/11 03:17:16;;;;;;;79.90;13.70;;;;;;;12.89;84.81;101740.94;6152051;23;20430;-86
2022/09/11 03:19:42;;;;;;;93.80;15.60;;;;;;;12.86;85.12;101737.53;6179024;23;20012;-86
2022/09/11 03:22:07;;;;;;;32.58;14.25;;;;;;;12.87;85.47;101734.84;6153702;23;20433;-87
2022/09/11 03:24:32;;;;;;;29.67;13.30;;;;;;;12.93;85.50;101725.78;6154708;23;20008;-86
2022/09/11 03:26:58;;;;;;;101.32;16.00;;;;;;;13.04;85.09;101744.81;6180064;23;20031;-86
2022/09/11 03:29:23;;;;;;;46.33;14.93;;;;;;;13.08;84.73;101734.97;6152280;23;20351;-87
2022/09/11 03:31:49;;;;;;;23.50;14.90;;;;;;;13.07;84.63;101733.25;6179222;23;20385;-86
2022/09/11 03:34:16;;;;;;;20.77;14.10;;;;;;;13.07;84.50;101730.59;6154147;23;20009;-86
2022/09/11 03:36:42;;;;;;;34.20;14.02;;;;;;;13.11;84.93;101734.88;6153868;23;20012;-87
2022/09/11 03:39:08;;;;;;;29.45;13.82;;;;;;;13.00;84.63;101732.59;6181025;23;20005;-86
2022/09/11 03:41:33;;;;;;;29.23;13.57;;;;;;;13.02;84.43;101736.94;6181215;23;20134;-86
2022/09/11 03:43:58;;;;;;;21.80;13.70;;;;;;;13.04;84.38;101742.19;6154209;23;20394;-86
2022/09/11 03:46:24;;;;;;;62.08;13.48;;;;;;;12.97;84.46;101741.53;6180316;23;20091;-86
2022/09/11 03:48:51;;;;;;;52.95;13.90;;;;;;;12.93;84.29;101739.06;6180099;23;20024;-86
2022/09/11 03:51:16;;;;;;;37.97;12.43;;;;;;;12.88;84.45;101741.88;6154156;23;20095;-86
2022/09/11 03:53:42;;;;;;;23.77;11.75;;;;;;;12.89;84.61;101746.25;6154943;23;20437;-87
2022/09/11 03:56:08;;;;;;;42.70;13.23;;;;;;;12.96;85.17;101744.22;6153622;23;20012;-86
2022/09/11 03:58:33;;;;;;;56.40;13.75;;;;;;;13.02;85.21;101755.50;6180953;23;19993;-86
2022/09/11 04:00:59;;;;;;;34.78;12.43;;;;;;;13.03;84.63;101748.41;6153162;23;20019;-87
2022/09/11 04:03:24;;;;;;;31.13;12.13;;;;;;;13.04;84.84;101747.47;6181093;23;20009;-86
2022/09/11 04:06:01;;;;;;;64.47;13.82;;;;;;;13.02;85.22;101746.69;6151545;23;20015;-87
2022/09/11 04:08:32;;;;;;;30.15;13.98;;;;;;;13.06;85.31;101750.09;6181024;23;20017;-86
2022/09/11 04:10:59;;;;;;;20.75;12.25;;;;;;;13.07;85.30;101735.91;6153473;23;20079;-86
2022/09/11 04:13:35;;;;;;;18.67;12.43;;;;;;;13.20;84.69;101753.13;6179733;23;20418;-86
2022/09/11 04:16:03;;;;;;;15.80;11.48;;;;;;;13.28;84.52;101759.91;6177716;23;20005;-86
2022/09/11 04:18:31;;;;;;;19.15;11.77;;;;;;;13.29;83.45;101742.19;6180366;23;19997;-86
2022/09/11 04:20:57;;;;;;;31.63;12.23;;;;;;;13.25;83.18;101736.13;6153764;23;20545;-86
2022/09/11 04:23:22;;;;;;;26.17;12.50;;;;;;;13.36;83.55;101751.66;6180225;23;20205;-87
2022/09/11 04:25:47;;;;;;;49.83;14.23;;;;;;;13.21;84.32;101741.56;6179181;23;20460;-86
2022/09/11 04:28:13;;;;;;;50.33;14.30;;;;;;;13.11;84.79;101743.69;6152751;23;20009;-86
2022/09/11 04:30:39;;;;;;;58.15;14.68;;;;;;;13.03;84.95;101732.47;6153797;23;20609;-86
2022/09/11 04:33:05;;;;;;;50.10;14.77;;;;;;;13.05;85.20;101745.69;6153856;23;20009;-87
2022/09/11 04:35:40;;;;;;;91.03;15.88;;;;;;;12.99;85.56;101747.66;6151692;23;20429;-86
2022/09/11 04:38:06;;;;;;;68.45;16.27;;;;;;;12.84;85.66;101742.88;6179761;23;20342;-86
2022/09/11 04:40:33;;;;;;;37.45;14.52;;;;;;;12.75;85.97;101737.91;6152726;23;20369;-86
2022/09/11 04:42:59;;;;;;;40.67;15.57;;;;;;;12.74;85.71;101747.66;6180146;23;20377;-86
2022/09/11 04:45:25;;;;;;;29.13;14.38;;;;;;;12.75;85.55;101744.06;6152802;23;20318;-87
2022/09/11 04:47:51;;;;;;;23.35;13.10;;;;;;;12.84;85.29;101750.84;6153737;23;20286;-87
2022/09/11 04:50:16;;;;;;;17.60;13.88;;;;;;;12.95;84.89;101750.47;6152722;23;20013;-87
2022/09/11 04:52:43;;;;;;;37.45;14.43;;;;;;;12.92;84.52;101750.59;6180219;23;20027;-86
2022/09/11 04:55:10;;;;;;;29.92;14.23;;;;;;;12.86;84.34;101756.09;6177921;23;20500;-86
2022/09/11 04:57:35;;;;;;;18.30;13.45;;;;;;;12.88;84.10;101768.41;6154246;23;20035;-86
2022/09/11 05:00:01;;;;;;;28.33;12.85;;;;;;;12.85;84.08;101764.97;6154655;23;20001;-86
2022/09/11 05:02:26;;;;;;;24.00;14.15;;;;;;;12.74;84.82;101750.31;6179527;23;20079;-86
2022/09/11 05:04:52;;;;;;;20.85;13.02;;;;;;;12.69;84.32;101749.59;6180812;23;20059;-87
2022/09/11 05:07:17;;;;;;;29.92;14.02;;;;;;;12.69;84.75;101754.03;6134871;23;20310;-87
2022/09/11 05:09:42;;;;;;;28.25;14.65;;;;;;;12.51;84.92;101740.47;6124708;23;20018;-86
2022/09/11 05:12:09;;;;;;;19.70;12.70;;;;;;;12.63;84.85;101757.75;6150911;23;20020;-87
2022/09/11 05:14:34;;;;;;;26.35;13.05;;;;;;;12.66;85.11;101756.78;6150367;23;20044;-86
2022/09/11 05:17:00;;;;;;;18.50;12.35;;;;;;;12.66;84.57;101765.63;6123182;23;20017;-86
2022/09/11 05:19:25;;;;;;;16.88;12.75;;;;;;;12.64;84.88;101758.66;6123852;23;20036;-86
2022/09/11 05:21:50;;;;;;;28.15;14.00;;;;;;;12.74;84.66;101776.84;6150857;23;20041;-86
2022/09/11 05:24:16;;;;;;;22.58;13.43;;;;;;;12.71;84.39;101768.13;6123385;23;20342;-86
2022/09/11 05:26:41;;;;;;;15.48;12.75;;;;;;;12.88;84.29;101780.81;6150046;23;19997;-86
2022/09/11 05:29:13;;;;;;;14.70;12.40;;;;;;;12.78;83.09;101759.03;6123220;23;20581;-85
2022/09/11 05:31:39;;;;;;;13.77;12.32;;;;;;;12.90;83.66;101778.97;6124929;23;20345;-85
2022/09/11 05:34:05;;;;;;;15.77;12.50;;;;;;;12.92;83.78;101793.06;6149352;23;20009;-86
2022/09/11 05:36:32;;;;;;;37.33;13.80;;;;;;;12.97;83.72;101805.25;6123190;23;20001;-86
2022/09/11 05:38:58;;;;;;;16.13;12.40;;;;;;;12.92;83.39;101790.41;6123184;23;20009;-86
2022/09/11 05:41:23;;;;;;;19.95;13.32;;;;;;;13.00;83.62;101812.22;6148952;23;20009;-86
2022/09/11 05:43:50;;;;;;;19.33;14.25;;;;;;;13.02;83.76;101810.41;6150049;23;20005;-86
2022/09/11 05:46:17;;;;;;;43.55;15.52;;;;;;;13.08;83.97;101817.28;6147937;23;20001;-87
2022/09/11 05:48:43;;;;;;;45.42;16.17;;;;;;;13.07;83.70;101816.41;6122692;23;20438;-86
2022/09/11 05:51:11;;;;;;;38.20;15.15;;;;;;;13.14;83.61;101831.19;6150281;23;20009;-86
2022/09/11 05:53:37;;;;;;;77.95;17.85;;;;;;;13.17;83.83;101833.75;6149129;23;20477;-86
2022/09/11 05:56:12;;;;;;;87.45;18.92;;;;;;;13.08;84.22;101828.75;6123263;23;20005;-86
2022/09/11 05:58:38;;;;;;;63.00;18.75;;;;;;;13.09;84.23;101824.31;6123134;23;20009;-87
2022/09/11 06:01:11;;;;;;;77.57;18.40;;;;;;;13.17;84.56;101836.41;6123245;23;20037;-86
2022/09/11 06:03:37;;;;;;;80.72;18.50;;;;;;;13.20;84.76;101828.34;6123610;23;20085;-86
2022/09/11 06:06:06;;;;;;;53.15;17.42;;;;;;;13.12;84.63;101833.03;6123986;23;19997;-86
2022/09/11 06:08:33;;;;;;;94.28;20.00;;;;;;;13.15;85.35;101829.41;6152859;23;20188;-86
2022/09/11 06:11:00;;;;;;;120.97;20.27;;;;;;;13.26;85.56;101852.03;6152393;23;20008;-86
2022/09/11 06:13:28;;;;;;;81.70;18.40;;;;;;;13.35;85.32;101852.66;6153671;23;20340;-86
2022/09/11 06:15:54;;;;;;;107.57;18.88;;;;;;;13.39;85.27;101855.16;6151523;23;20079;-86
2022/09/11 06:18:19;;;;;;;105.22;19.23;;;;;;;13.35;85.23;101863.28;6179334;23;20087;-86
2022/09/11 06:20:57;;;;;;;80.20;20.52;;;;;;;13.34;86.15;101864.19;6153665;23;20044;-87
2022/09/11 06:23:23;;;;;;;59.83;18.88;;;;;;;13.30;85.94;101854.59;6178807;23;20095;-87
2022/09/11 06:25:48;;;;;;;56.13;17.63;;;;;;;13.35;87.17;101852.66;6177022;23;20004;-86
2022/09/11 06:28:13;;;;;;;44.70;17.13;;;;;;;13.43;86.31;101862.09;6178362;23;20008;-87
2022/09/11 06:30:42;;;;;;;55.25;18.00;;;;;;;13.49;87.49;101863.66;6178712;23;20001;-86
2022/09/11 06:33:07;;;;;;;66.80;18.52;;;;;;;13.51;86.31;101869.75;6179680;23;20100;-86
2022/09/11 06:35:32;;;;;;;66.85;17.35;;;;;;;13.57;85.75;101871.31;6151997;23;20048;-86
2022/09/11 06:37:58;;;;;;;56.65;18.33;;;;;;;13.58;86.17;101865.97;6154017;23;20009;-86
2022/09/11 06:40:23;;;;;;;80.25;18.75;;;;;;;13.54;86.19;101880.28;6152447;23;20036;-86
2022/09/11 06:42:49;;;;;;;81.43;21.85;;;;;;;13.53;86.46;101865.28;6153753;23;20088;-87
2022/09/11 06:45:16;;;;;;;82.68;19.80;;;;;;;13.65;86.07;101867.47;6176150;23;20079;-87
2022/09/11 06:47:41;;;;;;;63.45;18.35;;;;;;;13.74;86.01;101872.44;6152836;23;20816;-86
2022/09/11 06:50:07;;;;;;;134.70;23.17;;;;;;;13.94;85.59;101882.38;6178143;23;20005;-86
2022/09/11 06:52:34;;;;;;;100.55;19.10;;;;;;;14.06;85.25;101878.34;6153596;23;20396;-86
2022/09/11 06:54:59;;;;;;;69.60;19.55;;;;;;;14.20;85.35;101891.13;6178302;23;20005;-86
2022/09/11 06:57:24;;;;;;;60.38;19.15;;;;;;;14.32;84.80;101889.81;6178858;23;20319;-86
2022/09/11 06:59:51;;;;;;;103.47;21.75;;;;;;;14.25;84.28;101882.03;6152470;23;19997;-86
2022/09/11 07:02:16;;;;;;;28.38;16.85;;;;;;;14.32;84.44;101881.81;6152544;23;20472;-87
2022/09/11 07:04:41;;;;;;;69.75;19.42;;;;;;;14.47;84.40;101881.22;6151671;23;20005;-86
2022/09/11 07:07:06;;;;;;;58.17;17.63;;;;;;;14.58;84.22;101876.34;6178065;23;20446;-86
2022/09/11 07:09:32;;;;;;;51.58;18.55;;;;;;;14.78;83.10;101886.16;6150203;23;20013;-86
2022/09/11 07:11:57;;;;;;;32.03;17.33;;;;;;;14.90;82.89;101885.69;6152653;23;20033;-86
2022/09/11 07:14:22;;;;;;;50.50;18.25;;;;;;;15.01;82.98;101879.91;6179066;23;20051;-86
2022/09/11 07:16:53;;;;;;;68.38;17.75;;;;;;;15.07;83.99;101879.66;6176969;23;20115;-86
2022/09/11 07:19:19;;;;;;;98.72;18.85;;;;;;;15.14;82.97;101872.25;6150909;23;20005;-87
2022/09/11 07:21:44;;;;;;;146.43;20.40;;;;;;;15.04;82.73;101874.44;6179379;23;20433;-87
2022/09/11 07:24:09;;;;;;;120.70;19.63;;;;;;;15.13;82.75;101874.06;6150411;23;20008;-87
2022/09/11 07:26:35;;;;;;;63.03;20.25;;;;;;;15.35;82.65;101878.47;6176692;23;20089;-86
2022/09/11 07:29:01;;;;;;;45.40;23.25;;;;;;;15.58;81.93;101873.00;6152299;23;20394;-86
2022/09/11 07:31:33;;;;;;;57.85;24.83;;;;;;;15.71;81.95;101873.31;6178872;23;20032;-86
2022/09/11 07:34:01;;;;;;;46.70;24.10;;;;;;;15.85;81.17;101878.03;6151290;23;20009;-86
2022/09/11 07:36:29;;;;;;;113.10;26.92;;;;;;;15.79;81.02;101874.72;6151081;23;20015;-86
2022/09/11 07:38:56;;;;;;;120.95;28.25;;;;;;;15.84;81.51;101878.97;6152212;23;19993;-87
2022/09/11 07:41:23;;;;;;;47.97;26.35;;;;;;;15.91;82.29;101877.78;6177321;23;20001;-86
2022/09/11 07:43:56;;;;;;;92.32;22.52;;;;;;;15.98;81.69;101888.06;6151125;23;20001;-86
2022/09/11 07:46:23;;;;;;;116.55;20.85;;;;;;;15.86;82.11;101888.66;6177535;23;20008;-86
2022/09/11 07:48:48;;;;;;;32.80;20.80;;;;;;;16.03;82.09;101880.72;6177094;23;20037;-86
2022/09/11 07:51:17;;;;;;;67.88;21.42;;;;;;;16.17;81.48;101877.41;6179082;23;20009;-86
2022/09/11 07:53:45;;;;;;;74.75;20.27;;;;;;;16.26;81.23;101887.66;6178838;23;20303;-86
2022/09/11 07:56:17;;;;;;;48.75;21.25;;;;;;;16.31;81.30;101887.44;6149631;23;20001;-87
2022/09/11 07:58:43;;;;;;;39.50;19.67;;;;;;;16.43;80.64;101886.84;6151349;23;20083;-87
2022/09/11 08:01:11;;;;;;;57.08;19.90;;;;;;;16.51;81.59;101881.16;6151157;23;20005;-86
2022/09/11 08:03:37;;;;;;;48.22;20.23;;;;;;;16.57;80.64;101883.53;6177723;23;20051;-86
2022/09/11 08:06:05;;;;;;;40.92;19.92;;;;;;;16.73;80.24;101897.00;6151281;23;20393;-87
2022/09/11 08:08:31;;;;;;;45.45;20.33;;;;;;;16.63;80.46;101896.56;6152066;23;20020;-86
2022/09/11 08:11:02;;;;;;;101.93;21.77;;;;;;;16.53;80.08;101903.28;6180465;23;20016;-87
2022/09/11 08:13:28;;;;;;;33.83;21.02;;;;;;;16.67;80.63;101908.84;6154129;23;20373;-87
2022/09/11 08:15:53;;;;;;;31.05;21.08;;;;;;;16.82;80.81;101910.78;6152510;23;20076;-87
2022/09/11 08:18:19;;;;;;;44.55;21.15;;;;;;;16.97;80.37;101913.63;6153618;23;20442;-86
2022/09/11 08:20:44;;;;;;;42.53;19.40;;;;;;;17.07;79.50;101912.25;6154267;23;20001;-87
2022/09/11 08:23:10;;;;;;;87.88;21.05;;;;;;;16.92;79.92;101921.00;6154048;23;20491;-87
2022/09/11 08:25:36;;;;;;;66.47;21.95;;;;;;;16.92;80.10;101910.31;6152439;23;20005;-86
2022/09/11 08:28:02;;;;;;;35.53;21.50;;;;;;;17.15;80.10;101912.72;6151040;23;20111;-87
2022/09/11 08:30:27;;;;;;;47.50;23.73;;;;;;;17.32;79.08;101912.72;6149096;23;20040;-87
2022/09/11 08:32:53;;;;;;;44.50;26.17;;;;;;;17.54;78.93;101925.84;6149124;23;20087;-87
2022/09/11 08:35:19;;;;;;;70.47;30.98;;;;;;;17.46;77.62;101919.16;6150490;23;20001;-87
2022/09/11 08:37:44;;;;;;;50.53;30.45;;;;;;;17.54;78.38;101914.31;6151763;23;20430;-87
2022/09/11 08:40:10;;;;;;;62.85;33.65;;;;;;;17.69;77.80;101926.84;6179600;23;20442;-87
2022/09/11 08:42:39;;;;;;;70.88;34.17;;;;;;;17.87;77.16;101930.41;6178874;23;20011;-86
2022/09/11 08:45:06;;;;;;;53.83;33.05;;;;;;;18.25;76.82;101932.81;6151321;23;20004;-87
2022/09/11 08:47:35;;;;;;;54.38;32.53;;;;;;;18.57;76.15;101933.72;6178217;23;20110;-86
2022/09/11 08:50:22;;;;;;;52.63;32.13;;;;;;;18.88;74.97;101931.97;6179335;23;20425;-86
2022/09/11 08:52:48;;;;;;;53.35;31.58;;;;;;;19.10;74.04;101932.47;6178923;23;20434;-86
2022/09/11 08:55:23;;;;;;;46.67;30.50;;;;;;;19.07;73.72;101936.22;6178461;23;20012;-87
2022/09/11 08:57:58;;;;;;;50.70;33.22;;;;;;;18.96;74.20;101919.88;6153566;23;20001;-87
2022/09/11 09:00:38;;;;;;;52.53;32.30;;;;;;;19.24;74.81;101934.34;6151457;23;20377;-87
2022/09/11 09:03:16;;;;;;;50.50;33.40;;;;;;;19.45;74.67;101926.84;6178950;23;20432;-87
2022/09/11 09:06:16;;;;;;;50.45;32.20;;;;;;;19.52;73.64;101930.88;6151527;23;20005;-87
2022/09/11 09:09:12;;;;;;;47.72;30.35;;;;;;;19.85;72.30;101934.19;6154260;23;20024;-87
2022/09/11 09:12:02;;;;;;;48.40;31.02;;;;;;;20.25;69.62;101936.22;6179366;23;20028;-86
2022/09/11 09:14:57;;;;;;;40.63;27.52;;;;;;;20.76;68.68;101941.94;6152583;23;20013;-85
2022/09/11 09:17:45;;;;;;;38.15;26.27;;;;;;;21.24;69.03;101943.16;6151215;23;20001;-85
2022/09/11 09:20:21;;;;;;;39.47;28.27;;;;;;;21.42;66.16;101940.22;6149547;23;20005;-86
2022/09/11 09:23:06;;;;;;;38.05;25.42;;;;;;;21.74;66.12;101946.94;6151187;23;20437;-85
2022/09/11 09:25:35;;;;;;;39.47;26.60;;;;;;;21.55;65.81;101944.66;6178435;23;20005;-86
2022/09/11 09:28:10;;;;;;;39.13;28.45;;;;;;;21.23;65.13;101948.66;6153835;23;20495;-86
2022/09/11 09:30:46;;;;;;;38.38;26.75;;;;;;;21.34;67.60;101948.81;6179125;23;20491;-86
2022/09/11 09:33:33;;;;;;;37.22;25.67;;;;;;;22.26;64.95;101962.13;6153492;23;20448;-86
2022/09/11 09:36:11;;;;;;;34.33;25.17;;;;;;;22.63;63.59;101954.94;6177917;23;20529;-87
2022/09/11 09:38:37;;;;;;;35.92;26.15;;;;;;;21.63;63.22;101957.56;6152281;23;20516;-86
2022/09/11 09:41:12;;;;;;;38.53;26.85;;;;;;;20.93;66.90;101957.78;6150984;23;20009;-87
2022/09/11 09:43:57;;;;;;;39.13;26.52;;;;;;;20.77;68.67;101960.63;6179419;23;20043;-87
2022/09/11 09:46:36;;;;;;;38.00;25.95;;;;;;;21.20;67.81;101954.22;6149195;23;20005;-87
2022/09/11 09:49:02;;;;;;;39.10;26.73;;;;;;;21.20;66.37;101947.03;6177977;23;20012;-87
2022/09/11 09:51:28;;;;;;;37.22;26.52;;;;;;;21.34;65.99;101940.75;6178241;23;20012;-88
2022/09/11 09:53:59;;;;;;;35.70;25.77;;;;;;;22.49;62.73;101957.78;6178061;23;20039;-88
2022/09/11 09:56:25;;;;;;;35.92;25.60;;;;;;;23.30;61.06;101956.28;6176898;23;20442;-87
2022/09/11 09:58:59;;;;;;;36.67;25.45;;;;;;;23.62;60.87;101949.28;6177287;23;20464;-86
2022/09/11 10:01:45;;;;;;;34.25;23.67;;;;;;;24.96;58.70;101941.28;6179068;23;20005;-87
2022/09/11 10:04:16;;;;;;;31.13;24.33;;;;;;;26.44;53.00;101958.28;6179054;23;20008;-87
2022/09/11 10:06:47;;;;;;;28.75;22.27;;;;;;;27.43;49.91;101945.56;6174745;23;20021;-85
2022/09/11 10:09:26;;;;;;;24.95;20.08;;;;;;;28.52;49.22;101954.13;6177470;23;20352;-86
2022/09/11 10:12:06;;;;;;;25.13;20.75;;;;;;;29.15;47.42;101956.88;6178429;23;20441;-85
2022/09/11 10:14:40;;;;;;;27.60;22.55;;;;;;;29.27;43.05;101952.88;6174226;23;20016;-86
2022/09/11 10:17:18;;;;;;;24.98;20.92;;;;;;;29.91;47.04;101959.88;6149373;23;20028;-85
2022/09/11 10:19:43;;;;;;;24.98;22.23;;;;;;;30.25;40.30;101956.34;6150831;23;20464;-85
2022/09/11 10:22:27;;;;;;;25.65;21.67;;;;;;;30.06;43.89;101953.81;6177815;23;20005;-86
2022/09/11 10:25:00;;;;;;;22.45;20.05;;;;;;;29.97;42.03;101955.66;6152054;23;20009;-86
2022/09/11 10:27:29;;;;;;;22.45;19.80;;;;;;;30.46;40.52;101951.31;6177232;23;20008;-85
2022/09/11 10:29:54;;;;;;;19.90;17.75;;;;;;;30.95;38.88;101954.19;6176062;23;20433;-86
2022/09/11 10:32:21;;;;;;;19.35;16.98;;;;;;;30.42;37.65;101952.66;6178727;23;20007;-86
2022/09/11 10:34:47;;;;;;;20.13;18.13;;;;;;;30.62;38.73;101950.50;6177557;23;20005;-86
2022/09/11 10:37:12;;;;;;;19.27;17.27;;;;;;;29.29;41.02;101950.88;6149286;23;20522;-86
2022/09/11 10:39:40;;;;;;;18.67;16.67;;;;;;;29.29;41.34;101942.72;6152468;23;20058;-86
2022/09/11 10:42:27;;;;;;;19.38;16.60;;;;;;;29.87;43.11;101944.00;6151353;23;20331;-86
2022/09/11 10:45:05;;;;;;;17.88;15.98;;;;;;;29.14;41.76;101931.50;6151878;23;20031;-87
2022/09/11 10:47:34;;;;;;;14.93;13.43;;;;;;;28.51;41.96;101938.81;6153549;23;20001;-87
2022/09/11 10:50:17;;;;;;;16.80;15.07;;;;;;;28.61;45.38;101937.75;6151339;23;20008;-86
2022/09/11 10:53:21;;;;;;;15.73;13.05;;;;;;;28.93;44.74;101947.28;6177170;23;20033;-87
2022/09/11 10:56:08;;;;;;;13.50;12.20;;;;;;;29.06;43.50;101944.19;6179631;23;20009;-87
2022/09/11 10:58:37;;;;;;;13.60;12.20;;;;;;;28.56;41.53;101947.38;6149532;23;20333;-87
2022/09/11 11:01:03;;;;;;;15.15;12.48;;;;;;;27.79;44.85;101949.38;6176450;23;20420;-87
2022/09/11 11:03:28;;;;;;;15.18;13.40;;;;;;;27.32;42.99;101951.13;6152499;23;20013;-87
2022/09/11 11:06:18;;;;;;;16.23;14.52;;;;;;;27.02;44.86;101941.25;6177141;23;20016;-87
2022/09/11 11:08:57;;;;;;;15.50;12.52;;;;;;;27.32;44.95;101948.41;6173959;23;20013;-87
2022/09/11 11:11:31;;;;;;;15.02;13.43;;;;;;;27.77;43.47;101935.09;6176214;23;20005;-86
2022/09/11 11:14:32;;;;;;;15.60;13.20;;;;;;;28.44;44.12;101944.84;6178810;23;20079;-87
2022/09/11 11:17:21;;;;;;;13.18;11.60;;;;;;;29.31;42.94;101940.66;6178199;23;20009;-86
2022/09/11 11:20:06;;;;;;;15.02;13.27;;;;;;;29.22;38.24;101947.06;6177076;23;20036;-86
2022/09/11 11:22:46;;;;;;;13.05;11.40;;;;;;;28.32;41.89;101943.31;6152714;23;20468;-87
2022/09/11 11:25:20;;;;;;;12.02;10.77;;;;;;;28.32;40.85;101943.31;6152943;23;20005;-87